createdAt,value
2019-05-29T00:00:23.622Z,63.30
2019-05-29T00:02:52.821Z,63.30
2019-05-29T00:05:23.183Z,63.30
2019-05-29T00:07:58.584Z,63.10
2019-05-29T00:10:29.564Z,63.00
2019-05-29T00:12:58.722Z,63.20
2019-05-29T00:15:27.840Z,63.30
2019-05-29T00:17:58.190Z,63.40
2019-05-29T00:20:29.098Z,63.50
2019-05-29T00:23:00.703Z,63.40
2019-05-29T00:25:29.786Z,63.50
2019-05-29T00:28:01.806Z,63.40
2019-05-29T00:30:32.649Z,63.50
2019-05-29T00:33:02.390Z,63.50
2019-05-29T00:35:31.885Z,63.50
2019-05-29T00:38:02.421Z,63.60
2019-05-29T00:40:33.578Z,63.70
2019-05-29T00:43:02.671Z,63.60
2019-05-29T00:45:31.791Z,63.70
2019-05-29T00:48:04.879Z,63.70
2019-05-29T00:50:36.266Z,63.80
2019-05-29T00:53:05.426Z,63.80
2019-05-29T00:55:34.803Z,63.90
2019-05-29T00:58:07.084Z,63.90
2019-05-29T01:00:36.671Z,64.00
2019-05-29T01:03:05.869Z,64.00
2019-05-29T01:05:39.156Z,64.00
2019-05-29T01:08:10.511Z,64.00
2019-05-29T01:10:40.813Z,64.00
2019-05-29T01:13:13.138Z,64.10
2019-05-29T01:15:45.732Z,64.00
2019-05-29T01:18:17.794Z,64.10
2019-05-29T01:20:52.511Z,64.20
2019-05-29T01:23:22.447Z,64.30
2019-05-29T01:25:57.721Z,64.30
2019-05-29T01:28:27.771Z,64.20
2019-05-29T01:30:57.781Z,65.20
2019-05-29T01:33:28.347Z,64.30
2019-05-29T01:36:00.836Z,64.30
2019-05-29T01:38:31.279Z,64.40
2019-05-29T01:41:03.086Z,64.40
2019-05-29T01:43:32.183Z,64.00
2019-05-29T01:46:03.089Z,64.20
2019-05-29T01:48:33.019Z,64.40
2019-05-29T01:51:03.214Z,64.50
2019-05-29T01:53:33.191Z,64.50
2019-05-29T01:56:26.455Z,64.20
2019-05-29T01:58:59.293Z,64.40
2019-05-29T02:01:41.432Z,64.50
2019-05-29T02:04:13.502Z,64.30
2019-05-29T02:06:45.052Z,64.60
2019-05-29T02:09:14.156Z,64.70
2019-05-29T02:11:44.344Z,64.70
2019-05-29T02:14:18.496Z,64.80
2019-05-29T02:16:49.924Z,64.80
2019-05-29T02:19:24.006Z,64.90
2019-05-29T02:21:56.988Z,64.90
2019-05-29T02:24:28.896Z,65.00
2019-05-29T02:26:58.056Z,65.10
2019-05-29T02:29:27.169Z,65.10
2019-05-29T02:31:59.061Z,65.00
2019-05-29T02:34:30.794Z,65.10
2019-05-29T02:37:01.476Z,65.10
2019-05-29T02:39:34.055Z,65.30
2019-05-29T02:42:03.205Z,65.20
2019-05-29T02:44:32.328Z,65.30
2019-05-29T02:47:05.005Z,65.10
2019-05-29T02:49:35.714Z,65.10
2019-05-29T02:52:07.394Z,65.20
2019-05-29T02:54:39.706Z,65.30
2019-05-29T02:57:09.815Z,65.20
2019-05-29T02:59:42.918Z,65.30
2019-05-29T03:02:12.819Z,65.30
2019-05-29T03:04:44.576Z,65.30
2019-05-29T03:07:15.234Z,65.30
2019-05-29T03:09:44.487Z,65.30
2019-05-29T03:12:14.114Z,65.50
2019-05-29T03:14:43.222Z,65.40
2019-05-29T03:17:12.455Z,65.50
2019-05-29T03:19:41.921Z,65.40
2019-05-29T03:22:11.076Z,65.40
2019-05-29T03:24:40.161Z,66.20
2019-05-29T03:27:09.236Z,65.30
2019-05-29T03:29:38.672Z,65.50
2019-05-29T03:32:13.654Z,65.50
2019-05-29T03:34:45.741Z,65.40
2019-05-29T03:37:09.447Z,65.20
2019-05-29T03:39:38.659Z,65.30
2019-05-29T03:42:07.867Z,65.40
2019-05-29T03:44:38.575Z,65.50
2019-05-29T03:47:07.842Z,65.50
2019-05-29T03:49:37.404Z,65.60
2019-05-29T03:52:06.727Z,65.60
2019-05-29T03:54:35.761Z,65.60
2019-05-29T03:57:04.833Z,65.60
2019-05-29T03:59:35.405Z,65.60
2019-05-29T04:02:04.748Z,65.60
2019-05-29T04:04:35.668Z,65.70
2019-05-29T04:07:04.584Z,65.80
2019-05-29T04:09:35.282Z,65.90
2019-05-29T04:12:04.777Z,65.80
2019-05-29T04:14:35.512Z,66.00
2019-05-29T04:17:06.127Z,65.90
2019-05-29T04:19:36.861Z,65.90
2019-05-29T04:22:10.752Z,66.00
2019-05-29T04:24:41.364Z,66.00
2019-05-29T04:27:13.492Z,65.90
2019-05-29T04:29:43.647Z,65.90
2019-05-29T04:32:12.700Z,66.00
2019-05-29T04:34:41.890Z,65.90
2019-05-29T04:37:11.011Z,65.80
2019-05-29T04:39:40.077Z,65.80
2019-05-29T04:42:09.168Z,65.80
2019-05-29T04:44:40.410Z,65.80
2019-05-29T04:47:11.391Z,65.50
2019-05-29T04:49:40.013Z,65.60
2019-05-29T04:52:09.476Z,65.50
2019-05-29T04:54:40.143Z,65.60
2019-05-29T04:57:09.420Z,65.50
2019-05-29T04:59:39.268Z,65.30
2019-05-29T05:02:08.541Z,65.30
2019-05-29T05:04:37.667Z,65.10
2019-05-29T05:07:06.757Z,65.20
2019-05-29T05:09:35.909Z,65.10
2019-05-29T05:12:05.043Z,64.80
2019-05-29T05:14:34.150Z,64.50
2019-05-29T05:17:03.376Z,64.70
2019-05-29T05:19:34.198Z,64.50
2019-05-29T05:22:03.339Z,64.40
2019-05-29T05:24:32.448Z,64.40
2019-05-29T05:27:01.531Z,64.10
2019-05-29T05:29:30.616Z,63.70
2019-05-29T05:31:59.697Z,63.70
2019-05-29T05:34:28.779Z,63.00
2019-05-29T05:36:57.982Z,63.70
2019-05-29T05:39:27.148Z,63.70
2019-05-29T05:41:56.277Z,63.90
2019-05-29T05:44:25.486Z,63.60
2019-05-29T05:49:51.468Z,64.10
2019-05-29T05:52:20.691Z,64.10
2019-05-29T05:54:49.795Z,64.10
2019-05-29T05:57:18.902Z,63.90
2019-05-29T05:59:48.169Z,63.90
2019-05-29T06:02:17.260Z,63.40
2019-05-29T06:04:46.395Z,63.30
2019-05-29T06:07:15.512Z,63.60
2019-05-29T06:09:44.717Z,63.90
2019-05-29T06:12:13.873Z,63.70
2019-05-29T06:14:45.010Z,63.70
2019-05-29T06:17:14.088Z,63.60
2019-05-29T06:19:43.327Z,63.50
2019-05-29T06:22:12.587Z,63.10
2019-05-29T06:24:43.104Z,63.00
2019-05-29T06:27:12.657Z,63.10
2019-05-29T06:29:41.845Z,62.40
2019-05-29T06:32:11.128Z,63.30
2019-05-29T06:34:41.540Z,61.90
2019-05-29T06:37:10.773Z,62.50
2019-05-29T06:39:40.036Z,62.30
2019-05-29T06:42:09.196Z,62.00
2019-05-29T06:44:39.852Z,61.90
2019-05-29T06:47:09.422Z,61.50
2019-05-29T06:49:38.631Z,61.80
2019-05-29T06:52:09.298Z,62.20
2019-05-29T06:54:39.927Z,62.10
2019-05-29T06:57:09.183Z,61.70
2019-05-29T06:59:38.311Z,61.50
2019-05-29T07:02:07.453Z,61.60
2019-05-29T07:04:36.669Z,62.00
2019-05-29T07:07:05.746Z,60.50
2019-05-29T07:09:34.895Z,60.40
2019-05-29T07:12:04.140Z,59.50
2019-05-29T07:14:33.260Z,60.20
2019-05-29T07:17:02.461Z,60.20
2019-05-29T07:19:47.811Z,59.30
2019-05-29T07:22:02.759Z,59.90
2019-05-29T07:24:31.993Z,58.70
2019-05-29T07:27:01.098Z,59.60
2019-05-29T07:29:30.312Z,59.70
2019-05-29T07:31:59.561Z,59.00
2019-05-29T07:34:28.830Z,58.50
2019-05-29T07:36:58.021Z,57.50
2019-05-29T07:39:27.051Z,57.90
2019-05-29T07:41:56.211Z,58.00
2019-05-29T07:44:25.316Z,59.40
2019-05-29T07:46:54.820Z,58.90
2019-05-29T07:49:38.102Z,58.90
2019-05-29T07:51:54.864Z,57.90
2019-05-29T07:54:24.209Z,58.70
2019-05-29T07:56:53.368Z,56.70
2019-05-29T07:59:22.571Z,58.30
2019-05-29T08:01:51.683Z,58.30
2019-05-29T08:04:20.786Z,57.80
2019-05-29T08:06:54.349Z,57.80
2019-05-29T08:09:20.745Z,58.50
2019-05-29T08:11:50.160Z,57.90
2019-05-29T08:14:19.488Z,58.80
2019-05-29T08:16:50.032Z,58.20
2019-05-29T08:19:19.384Z,58.10
2019-05-29T08:21:48.590Z,58.20
2019-05-29T08:24:17.708Z,58.30
2019-05-29T08:26:46.954Z,56.80
2019-05-29T08:29:16.137Z,57.50
2019-05-29T08:31:45.350Z,58.20
2019-05-29T08:34:14.464Z,57.30
2019-05-29T08:37:02.193Z,57.00
2019-05-29T08:39:33.030Z,57.80
2019-05-29T08:42:02.025Z,57.40
2019-05-29T08:44:16.326Z,57.30
2019-05-29T08:47:08.235Z,57.70
2019-05-29T08:49:17.848Z,57.60
2019-05-29T08:51:48.058Z,56.80
2019-05-29T08:54:24.066Z,56.70
2019-05-29T08:56:48.427Z,57.50
2019-05-29T08:59:17.700Z,54.20
2019-05-29T09:01:48.315Z,55.20
2019-05-29T09:04:17.968Z,55.40
2019-05-29T09:06:47.157Z,54.20
2019-05-29T09:09:16.352Z,54.80
2019-05-29T09:11:45.736Z,54.50
2019-05-29T09:14:14.823Z,54.50
2019-05-29T09:16:44.053Z,54.40
2019-05-29T09:19:14.193Z,53.20
2019-05-29T09:21:43.440Z,55.00
2019-05-29T09:24:14.221Z,55.50
2019-05-29T09:26:46.317Z,56.20
2019-05-29T09:29:18.197Z,53.10
2019-05-29T09:31:45.310Z,52.70
2019-05-29T09:34:15.484Z,52.10
2019-05-29T09:36:45.418Z,54.80
2019-05-29T09:39:16.304Z,53.20
2019-05-29T09:41:45.564Z,54.10
2019-05-29T09:44:31.261Z,53.20
2019-05-29T09:46:45.592Z,55.40
2019-05-29T09:49:15.724Z,54.50
2019-05-29T09:51:45.739Z,53.20
2019-05-29T09:54:15.008Z,53.80
2019-05-29T09:56:44.199Z,54.30
2019-05-29T09:59:13.407Z,53.80
2019-05-29T10:01:42.537Z,53.10
2019-05-29T10:04:11.744Z,54.50
2019-05-29T10:06:40.994Z,54.40
2019-05-29T10:09:10.259Z,52.20
2019-05-29T10:11:39.544Z,54.00
2019-05-29T10:14:08.756Z,55.10
2019-05-29T10:16:38.042Z,52.40
2019-05-29T10:19:07.180Z,54.50
2019-05-29T10:21:40.727Z,53.60
2019-05-29T10:24:07.429Z,54.50
2019-05-29T10:26:36.632Z,53.50
2019-05-29T10:29:09.839Z,53.10
2019-05-29T10:31:39.324Z,54.40
2019-05-29T10:34:08.525Z,51.80
2019-05-29T10:36:37.777Z,53.50
2019-05-29T10:39:11.907Z,51.90
2019-05-29T10:41:39.556Z,52.20
2019-05-29T10:44:12.455Z,53.00
2019-05-29T10:46:39.969Z,52.60
2019-05-29T10:49:09.098Z,53.40
2019-05-29T10:51:38.175Z,52.00
2019-05-29T10:54:07.281Z,51.90
2019-05-29T10:56:36.385Z,51.20
2019-05-29T10:59:05.669Z,52.10
2019-05-29T11:01:34.753Z,49.00
2019-05-29T11:04:03.864Z,51.90
2019-05-29T11:06:33.021Z,51.90
2019-05-29T11:09:02.194Z,50.50
2019-05-29T11:11:31.338Z,51.10
2019-05-29T11:14:00.630Z,50.00
2019-05-29T11:16:29.740Z,50.60
2019-05-29T11:18:58.851Z,48.70
2019-05-29T11:21:27.993Z,48.90
2019-05-29T11:23:58.195Z,51.00
2019-05-29T11:26:27.457Z,50.70
2019-05-29T11:28:56.746Z,51.40
2019-05-29T11:31:25.997Z,52.20
2019-05-29T11:33:55.114Z,50.40
2019-05-29T11:36:24.290Z,49.90
2019-05-29T11:38:54.581Z,50.20
2019-05-29T11:41:26.549Z,50.90
2019-05-29T11:43:54.925Z,50.10
2019-05-29T11:46:25.592Z,50.30
2019-05-29T11:48:55.272Z,52.40
2019-05-29T11:51:24.551Z,51.10
2019-05-29T11:53:53.697Z,50.40
2019-05-29T11:56:22.852Z,49.90
2019-05-29T11:58:52.777Z,48.80
2019-05-29T12:01:22.098Z,48.90
2019-05-29T12:04:15.699Z,52.90
2019-05-29T12:06:22.117Z,51.80
2019-05-29T12:08:51.526Z,51.60
2019-05-29T12:11:20.737Z,51.70
2019-05-29T12:13:49.924Z,52.10
2019-05-29T12:16:19.033Z,52.40
2019-05-29T12:18:48.120Z,51.00
2019-05-29T12:21:17.213Z,49.80
2019-05-29T12:23:46.384Z,50.10
2019-05-29T12:26:22.342Z,50.00
2019-05-29T12:28:46.447Z,49.10
2019-05-29T12:31:15.609Z,50.10
2019-05-29T12:33:44.799Z,48.90
2019-05-29T12:36:14.027Z,48.10
2019-05-29T12:38:43.186Z,49.40
2019-05-29T12:41:12.388Z,49.10
2019-05-29T12:43:41.527Z,50.20
2019-05-29T12:46:10.679Z,50.90
2019-05-29T12:48:39.812Z,49.40
2019-05-29T12:51:08.980Z,49.80
2019-05-29T12:53:38.216Z,47.60
2019-05-29T12:56:07.378Z,48.90
2019-05-29T12:58:36.560Z,50.60
2019-05-29T13:01:05.672Z,50.40
2019-05-29T13:03:35.647Z,49.90
2019-05-29T13:06:04.943Z,50.10
2019-05-29T13:08:34.045Z,50.60
2019-05-29T13:11:04.947Z,47.60
2019-05-29T13:13:34.053Z,50.90
2019-05-29T13:16:05.449Z,45.10
2019-05-29T13:18:34.648Z,50.10
2019-05-29T13:21:05.055Z,48.50
2019-05-29T13:23:44.682Z,45.90
2019-05-29T13:26:05.698Z,48.90
2019-05-29T13:28:34.965Z,49.90
2019-05-29T13:31:04.720Z,51.50
2019-05-29T13:33:35.022Z,51.40
2019-05-29T13:36:04.582Z,48.00
2019-05-29T13:38:34.015Z,48.00
2019-05-29T13:41:04.902Z,49.70
2019-05-29T13:43:34.082Z,48.00
2019-05-29T13:46:04.613Z,49.10
2019-05-29T13:48:33.969Z,45.70
2019-05-29T13:51:03.697Z,49.30
2019-05-29T13:53:33.080Z,48.00
2019-05-29T13:56:02.146Z,46.40
2019-05-29T13:58:31.254Z,47.30
2019-05-29T14:01:00.813Z,46.70
2019-05-29T14:03:31.222Z,47.60
2019-05-29T14:06:00.859Z,44.90
2019-05-29T14:08:30.238Z,45.50
2019-05-29T14:11:00.764Z,46.40
2019-05-29T14:13:30.173Z,47.20
2019-05-29T14:16:00.549Z,46.40
2019-05-29T14:18:29.840Z,43.70
2019-05-29T14:20:59.127Z,45.00
2019-05-29T14:23:28.323Z,44.40
2019-05-29T14:25:57.426Z,39.60
2019-05-29T14:28:26.583Z,43.90
2019-05-29T14:30:58.525Z,43.80
2019-05-29T14:33:27.554Z,45.00
2019-05-29T14:35:56.736Z,46.10
2019-05-29T14:38:25.927Z,45.20
2019-05-29T14:40:55.056Z,44.40
2019-05-29T14:43:24.398Z,44.10
2019-05-29T14:45:53.692Z,45.40
2019-05-29T14:48:22.798Z,43.40
2019-05-29T14:50:51.987Z,44.60
2019-05-29T14:53:21.129Z,45.10
2019-05-29T14:55:50.265Z,45.40
2019-05-29T14:58:19.478Z,46.20
2019-05-29T15:00:48.656Z,44.20
2019-05-29T15:03:17.788Z,45.80
2019-05-29T15:05:46.927Z,45.40
2019-05-29T15:08:16.098Z,44.40
2019-05-29T15:10:45.304Z,45.60
2019-05-29T15:13:15.488Z,46.30
2019-05-29T15:15:44.864Z,41.20
2019-05-29T15:18:18.537Z,43.30
2019-05-29T15:20:45.143Z,45.90
2019-05-29T15:23:15.471Z,44.10
2019-05-29T15:25:45.045Z,42.80
2019-05-29T15:28:15.864Z,44.60
2019-05-29T15:30:45.320Z,40.10
2019-05-29T15:33:14.891Z,41.30
2019-05-29T15:35:44.304Z,42.00
2019-05-29T15:38:14.879Z,43.90
2019-05-29T15:40:44.251Z,44.10
2019-05-29T15:43:15.152Z,42.10
2019-05-29T15:45:44.719Z,42.30
2019-05-29T15:48:14.880Z,43.00
2019-05-29T15:50:44.542Z,42.00
2019-05-29T15:53:15.111Z,42.50
2019-05-29T15:55:44.537Z,41.60
2019-05-29T15:58:15.383Z,40.80
2019-05-29T16:00:44.756Z,40.90
2019-05-29T16:03:15.622Z,42.60
2019-05-29T16:05:45.150Z,41.30
2019-05-29T16:08:16.127Z,40.90
2019-05-29T16:10:45.902Z,42.30
2019-05-29T16:13:17.273Z,41.10
2019-05-29T16:15:46.735Z,43.40
2019-05-29T16:18:23.202Z,41.60
2019-05-29T16:20:47.815Z,45.60
2019-05-29T16:23:33.255Z,44.30
2019-05-29T16:25:48.006Z,43.20
2019-05-29T16:28:17.332Z,42.30
2019-05-29T16:30:46.608Z,43.60
2019-05-29T16:33:17.076Z,43.30
2019-05-29T16:35:46.439Z,46.50
2019-05-29T16:38:16.034Z,45.40
2019-05-29T16:40:45.292Z,44.20
2019-05-29T16:43:15.883Z,44.90
2019-05-29T16:45:45.239Z,43.30
2019-05-29T16:48:14.620Z,46.70
2019-05-29T16:50:43.887Z,46.10
2019-05-29T16:53:13.046Z,46.60
2019-05-29T16:55:53.329Z,44.70
2019-05-29T16:58:13.040Z,45.00
2019-05-29T17:00:42.271Z,43.20
2019-05-29T17:03:11.377Z,42.40
2019-05-29T17:05:40.620Z,43.70
2019-05-29T17:08:09.919Z,45.90
2019-05-29T17:10:40.459Z,46.10
2019-05-29T17:13:09.649Z,43.30
2019-05-29T17:15:38.866Z,45.10
2019-05-29T17:18:08.151Z,46.00
2019-05-29T17:20:43.605Z,45.00
2019-05-29T17:23:14.883Z,46.20
2019-05-29T17:25:44.375Z,47.00
2019-05-29T17:28:14.900Z,49.10
2019-05-29T17:30:44.307Z,47.00
2019-05-29T17:33:14.985Z,46.50
2019-05-29T17:35:44.349Z,46.80
2019-05-29T17:38:14.779Z,47.00
2019-05-29T17:40:44.159Z,47.00
2019-05-29T17:43:13.419Z,46.70
2019-05-29T17:45:42.596Z,48.00
2019-05-29T17:48:11.750Z,46.90
2019-05-29T17:50:41.011Z,48.40
2019-05-29T17:53:10.702Z,48.30
2019-05-29T17:55:39.982Z,48.60
2019-05-29T17:58:09.126Z,48.40
2019-05-29T18:00:38.395Z,49.20
2019-05-29T18:03:07.691Z,50.30
2019-05-29T18:05:38.885Z,50.20
2019-05-29T18:08:08.301Z,51.40
2019-05-29T18:10:37.707Z,49.90
2019-05-29T18:13:08.068Z,50.50
2019-05-29T18:15:40.011Z,51.00
2019-05-29T18:18:09.237Z,50.60
2019-05-29T18:20:40.481Z,49.90
2019-05-29T18:23:10.764Z,50.50
2019-05-29T18:25:41.848Z,51.00
2019-05-29T18:28:11.208Z,49.30
2019-05-29T18:30:40.396Z,51.00
2019-05-29T18:33:09.907Z,51.10
2019-05-29T18:35:39.214Z,50.50
2019-05-29T18:38:08.471Z,51.30
2019-05-29T18:40:37.855Z,49.70
2019-05-29T18:43:07.089Z,50.90
2019-05-29T18:45:40.217Z,50.70
2019-05-29T18:48:09.405Z,49.70
2019-05-29T18:50:38.714Z,50.70
2019-05-29T18:53:08.273Z,51.60
2019-05-29T18:55:37.460Z,51.60
2019-05-29T18:58:06.686Z,51.30
2019-05-29T19:00:36.170Z,52.00
2019-05-29T19:03:05.488Z,52.50
2019-05-29T19:05:34.760Z,52.80
2019-05-29T19:08:04.111Z,53.00
2019-05-29T19:10:33.404Z,51.90
2019-05-29T19:13:02.940Z,53.40
2019-05-29T19:15:38.563Z,52.50
2019-05-29T19:18:08.248Z,53.00
2019-05-29T19:20:37.377Z,53.30
2019-05-29T19:23:07.981Z,53.40
2019-05-29T19:25:37.140Z,53.20
2019-05-29T19:28:06.273Z,53.80
2019-05-29T19:30:35.418Z,52.10
2019-05-29T19:33:04.958Z,53.30
2019-05-29T19:35:34.209Z,53.40
2019-05-29T19:38:03.389Z,53.10
2019-05-29T19:40:32.590Z,54.20
2019-05-29T19:43:01.867Z,54.30
2019-05-29T19:45:31.046Z,53.70
2019-05-29T19:48:02.547Z,53.50
2019-05-29T19:50:35.041Z,53.60
2019-05-29T19:53:16.131Z,54.30
2019-05-29T19:55:46.675Z,53.90
2019-05-29T19:58:23.093Z,53.90
2019-05-29T20:00:56.542Z,54.20
2019-05-29T20:03:30.355Z,54.20
2019-05-29T20:06:06.588Z,54.30
2019-05-29T20:08:40.136Z,53.80
2019-05-29T20:11:12.632Z,54.90
2019-05-29T20:13:41.917Z,55.00
2019-05-29T20:16:27.974Z,55.00
2019-05-29T20:19:07.578Z,54.90
2019-05-29T20:21:47.188Z,54.70
2019-05-29T20:24:20.767Z,55.10
2019-05-29T20:26:51.108Z,55.10
2019-05-29T20:29:22.101Z,54.70
2019-05-29T20:31:55.454Z,54.70
2019-05-29T20:34:26.083Z,55.20
2019-05-29T20:37:15.392Z,55.00
2019-05-29T20:39:51.327Z,54.80
2019-05-29T20:42:30.472Z,55.00
2019-05-29T20:45:00.523Z,55.00
2019-05-29T20:47:35.844Z,55.00
2019-05-29T20:50:07.646Z,55.20
2019-05-29T20:52:45.632Z,55.10
2019-05-29T20:55:27.461Z,55.20
2019-05-29T20:58:23.570Z,56.00
2019-05-29T21:00:45.833Z,55.70
2019-05-29T21:03:16.653Z,55.30
2019-05-29T21:05:49.748Z,55.30
2019-05-29T21:08:21.634Z,55.30
2019-05-29T21:10:54.157Z,55.40
2019-05-29T21:13:23.910Z,55.70
2019-05-29T21:15:54.138Z,55.80
2019-05-29T21:18:23.765Z,55.80
2019-05-29T21:21:08.680Z,55.80
2019-05-29T21:23:41.105Z,56.00
2019-05-29T21:29:12.569Z,56.10
2019-05-29T21:31:45.762Z,56.30
2019-05-29T21:34:22.426Z,56.20
2019-05-29T21:37:38.656Z,56.20
2019-05-29T21:40:10.406Z,56.80
2019-05-29T21:42:44.852Z,56.40
2019-05-29T21:45:51.217Z,56.30
2019-05-29T21:48:20.461Z,56.20
2019-05-29T21:51:03.229Z,56.60
2019-05-29T21:53:39.308Z,56.40
2019-05-29T21:56:11.812Z,56.40
2019-05-29T21:58:58.891Z,56.60
2019-05-29T22:01:17.523Z,56.40
2019-05-29T22:03:52.763Z,56.60
2019-05-29T22:06:22.098Z,56.70
2019-05-29T22:08:53.879Z,56.60
2019-05-29T22:11:25.133Z,56.80
2019-05-29T22:14:17.730Z,56.80
2019-05-29T22:16:47.630Z,56.70
2019-05-29T22:19:18.527Z,56.60
2019-05-29T22:22:01.362Z,56.50
2019-05-29T22:24:31.890Z,56.70
2019-05-29T22:27:01.617Z,56.60
2019-05-29T22:29:33.440Z,56.70
2019-05-29T22:32:14.827Z,56.80
2019-05-29T22:34:46.451Z,56.80
2019-05-29T22:37:29.756Z,57.10
2019-05-29T22:39:59.630Z,56.80
2019-05-29T22:42:51.347Z,56.80
2019-05-29T22:45:21.161Z,57.00
2019-05-29T22:47:53.725Z,57.20
2019-05-29T22:50:24.380Z,57.50
2019-05-29T22:52:53.787Z,57.60
2019-05-29T22:55:28.791Z,57.30
2019-05-29T22:57:58.042Z,57.30
2019-05-29T23:00:27.784Z,57.50
2019-05-29T23:02:58.139Z,57.40
2019-05-29T23:05:30.513Z,57.40
2019-05-29T23:08:00.354Z,57.60
2019-05-29T23:10:36.538Z,57.60
2019-05-29T23:13:25.420Z,57.70
2019-05-29T23:15:58.711Z,58.30
2019-05-29T23:18:31.002Z,59.00
2019-05-29T23:21:02.676Z,59.40
2019-05-29T23:23:32.256Z,59.70
2019-05-29T23:26:01.388Z,59.50
2019-05-29T23:28:30.539Z,60.90
2019-05-29T23:31:02.967Z,60.00
2019-05-29T23:33:42.484Z,60.70
2019-05-29T23:36:13.983Z,60.50
2019-05-29T23:38:43.191Z,61.00
2019-05-29T23:41:15.949Z,62.00
2019-05-29T23:43:53.366Z,61.80
2019-05-29T23:46:37.921Z,63.40
2019-05-29T23:49:11.562Z,62.20
2019-05-29T23:51:40.796Z,63.80
2019-05-29T23:54:15.005Z,64.40
2019-05-29T23:56:46.278Z,63.40
2019-05-29T23:59:15.782Z,64.00
